Colton, South Dakota
Current Conditions -  °F | °C
As of 7:56 AM on Monday 26 Jan 2015 (Local Time) from KFSD Reporting Station
Few Clouds Few Clouds  
Wind Chill: 26°   Ceiling: Unl
Heat Index: 36°   Visibility: 10mi
Dew Point: 32°   Wind: 16mph
Humidity: 86%   Direction: 310°NW
Pressure: 29.81"   Gusts: NA
Location:  43.79°N, 96.93°W
Report Text: KFSD 261356Z 31014KT 10SM FEW120 FEW250 02/00 A2981 RMK AO2 SLP107 T00220000
Loading
Personal Weather Stations






























Interactive Weather Map New forecast layout! Learn more

10-Day Weather Forecast

Advertisements
Track Severe Weather on mobile